Time;durP1;ratioP1;P1;durP2;ratioP2;P2;SDS_P1;SDS_P2;PMS_P1;PMS_P2;Temp;Humidity;BMP_temperature;BMP_pressure;BME280_temperature;BME280_humidity;BME280_pressure;Samples;Min_cycle;Max_cycle;Signal;HPM_P1;HPM_P2
2021/03/03 00:01:47;;;;;;;3.83;1.85;;;;;;;;;;5048415;28;20161;-75
2021/03/03 00:04:13;;;;;;;0.63;0.63;;;;;;;;;;5048924;28;20193;-75
2021/03/03 00:06:40;;;;;;;0.40;0.40;;;;;;;;;;5049342;28;20160;-77
2021/03/03 00:09:06;;;;;;;0.10;0.10;;;;;;;;;;5048007;28;20240;-76
2021/03/03 00:11:32;;;;;;;0.88;0.88;;;;;;;;;;5048176;28;20161;-77
2021/03/03 00:13:58;;;;;;;0.20;0.20;;;;;;;;;;5047664;28;20205;-76
2021/03/03 00:16:25;;;;;;;0.98;0.98;;;;;;;;;;5048586;28;20201;-77
2021/03/03 00:18:51;;;;;;;1.23;1.17;;;;;;;;;;5047966;28;20192;-76
2021/03/03 00:21:17;;;;;;;0.95;0.95;;;;;;;;;;5047965;28;20177;-76
2021/03/03 00:23:43;;;;;;;0.40;0.40;;;;;;;;;;5049167;28;20220;-76
2021/03/03 00:26:09;;;;;;;0.15;0.15;;;;;;;;;;5048423;28;20189;-77
2021/03/03 00:28:35;;;;;;;0.38;0.38;;;;;;;;;;5049159;28;20690;-76
2021/03/03 00:31:02;;;;;;;0.10;0.10;;;;;;;;;;5049094;28;20161;-77
2021/03/03 00:33:28;;;;;;;0.30;0.30;;;;;;;;;;5049099;28;20169;-76
2021/03/03 00:35:54;;;;;;;0.63;0.63;;;;;;;;;;5044395;28;20189;-77
2021/03/03 00:38:20;;;;;;;2.30;1.73;;;;;;;;;;5029376;28;20162;-76
2021/03/03 00:40:47;;;;;;;0.30;0.30;;;;;;;;;;5029394;28;20158;-76
2021/03/03 00:43:13;;;;;;;1.05;1.05;;;;;;;;;;5044483;28;20176;-76
2021/03/03 00:45:39;;;;;;;0.85;0.85;;;;;;;;;;5028999;28;20281;-77
2021/03/03 00:48:05;;;;;;;0.88;0.88;;;;;;;;;;5029159;28;20189;-76
2021/03/03 00:50:32;;;;;;;1.25;1.25;;;;;;;;;;5029291;28;20169;-74
2021/03/03 00:52:58;;;;;;;1.98;1.85;;;;;;;;;;5029334;28;20162;-76
2021/03/03 00:55:24;;;;;;;1.23;1.23;;;;;;;;;;5029061;28;20296;-76
2021/03/03 00:57:51;;;;;;;0.15;0.15;;;;;;;;;;5029072;28;20221;-76
2021/03/03 01:00:17;;;;;;;0.10;0.10;;;;;;;;;;5029097;28;20154;-76
2021/03/03 01:02:43;;;;;;;1.15;1.15;;;;;;;;;;5029083;28;20198;-76
2021/03/03 01:05:10;;;;;;;0.20;0.20;;;;;;;;;;5044349;28;20202;-75
2021/03/03 01:07:36;;;;;;;0.55;0.55;;;;;;;;;;5028595;28;20166;-77
2021/03/03 01:10:02;;;;;;;0.20;0.20;;;;;;;;;;5029007;28;20193;-75
2021/03/03 01:12:28;;;;;;;1.45;1.35;;;;;;;;;;5043981;28;20202;-74
2021/03/03 01:14:55;;;;;;;0.25;0.25;;;;;;;;;;5044098;28;20194;-76
2021/03/03 01:17:21;;;;;;;1.45;1.45;;;;;;;;;;5028913;28;20214;-73
2021/03/03 01:19:47;;;;;;;0.20;0.20;;;;;;;;;;5028918;28;20529;-75
2021/03/03 01:22:13;;;;;;;1.05;0.98;;;;;;;;;;5044125;28;20178;-74
2021/03/03 01:24:40;;;;;;;0.80;0.80;;;;;;;;;;5044082;28;20194;-75
2021/03/03 01:27:06;;;;;;;0.60;0.60;;;;;;;;;;5047489;28;20169;-74
2021/03/03 01:29:33;;;;;;;1.65;1.60;;;;;;;;;;5048663;28;20173;-76
2021/03/03 01:31:59;;;;;;;0.10;0.10;;;;;;;;;;5047259;28;20236;-76
2021/03/03 01:34:25;;;;;;;0.28;0.28;;;;;;;;;;5047350;28;20198;-75
2021/03/03 01:36:51;;;;;;;1.42;1.33;;;;;;;;;;5030685;28;20233;-75
2021/03/03 01:39:17;;;;;;;0.30;0.30;;;;;;;;;;5046956;28;20178;-77
2021/03/03 01:41:43;;;;;;;0.10;0.10;;;;;;;;;;5032259;28;20150;-76
2021/03/03 01:44:10;;;;;;;0.22;0.22;;;;;;;;;;5032086;28;20225;-76
2021/03/03 01:46:36;;;;;;;2.30;1.50;;;;;;;;;;5047308;28;20244;-75
2021/03/03 01:49:02;;;;;;;0.80;0.80;;;;;;;;;;5047391;28;20177;-75
2021/03/03 01:51:28;;;;;;;0.35;0.35;;;;;;;;;;5047310;28;20539;-77
2021/03/03 01:53:55;;;;;;;0.52;0.52;;;;;;;;;;5032024;28;20232;-76
2021/03/03 01:56:21;;;;;;;0.52;0.52;;;;;;;;;;5031888;28;20201;-76
2021/03/03 01:58:47;;;;;;;0.47;0.47;;;;;;;;;;5031940;28;20158;-75
2021/03/03 02:01:14;;;;;;;0.20;0.20;;;;;;;;;;5047178;28;20627;-74
2021/03/03 02:03:40;;;;;;;0.25;0.25;;;;;;;;;;5047044;28;20166;-75
2021/03/03 02:06:11;;;;;;;0.68;0.63;;;;;;;;;;5031718;28;20169;-75
2021/03/03 02:08:44;;;;;;;0.20;0.20;;;;;;;;;;5047119;28;20197;-75
2021/03/03 02:11:17;;;;;;;1.40;1.40;;;;;;;;;;5031700;28;20158;-75
2021/03/03 02:13:46;;;;;;;0.25;0.25;;;;;;;;;;5046924;28;20229;-76
2021/03/03 02:16:14;;;;;;;0.10;0.10;;;;;;;;;;5031493;28;20185;-77
2021/03/03 02:18:41;;;;;;;1.33;1.27;;;;;;;;;;5046571;28;20178;-68
2021/03/03 02:21:16;;;;;;;0.55;0.55;;;;;;;;;;5031574;28;20237;-69
2021/03/03 02:24:01;;;;;;;0.98;0.98;;;;;;;;;;5046718;28;20332;-70
2021/03/03 02:26:35;;;;;;;2.28;0.95;;;;;;;;;;5060099;28;20187;-67
2021/03/03 02:29:02;;;;;;;0.40;0.40;;;;;;;;;;5051189;28;20253;-68
2021/03/03 02:31:29;;;;;;;0.93;0.93;;;;;;;;;;5049980;28;20196;-68
2021/03/03 02:33:56;;;;;;;1.27;1.17;;;;;;;;;;5049710;28;20201;-69
2021/03/03 02:36:23;;;;;;;0.45;0.45;;;;;;;;;;5037133;28;20209;-68
2021/03/03 02:38:49;;;;;;;0.30;0.30;;;;;;;;;;5031235;28;20177;-69
2021/03/03 02:41:16;;;;;;;0.25;0.25;;;;;;;;;;5046080;28;20178;-71
2021/03/03 02:43:43;;;;;;;0.10;0.10;;;;;;;;;;5043665;28;20174;-71
2021/03/03 02:46:09;;;;;;;0.20;0.20;;;;;;;;;;5028384;28;20285;-69
2021/03/03 02:48:36;;;;;;;1.27;1.20;;;;;;;;;;5028668;28;20162;-71
2021/03/03 02:51:02;;;;;;;0.20;0.20;;;;;;;;;;5044578;28;20261;-71
2021/03/03 02:53:29;;;;;;;1.17;1.17;;;;;;;;;;5046165;28;20186;-71
2021/03/03 02:55:55;;;;;;;1.27;0.80;;;;;;;;;;5046040;28;20158;-70
2021/03/03 02:58:21;;;;;;;1.60;1.33;;;;;;;;;;5046072;28;20234;-70
2021/03/03 03:00:49;;;;;;;0.40;0.40;;;;;;;;;;5046019;28;20197;-68
2021/03/03 03:03:20;;;;;;;0.10;0.10;;;;;;;;;;5030705;28;20162;-69
2021/03/03 03:05:49;;;;;;;0.10;0.10;;;;;;;;;;5030615;28;20158;-69
2021/03/03 03:08:17;;;;;;;0.63;0.63;;;;;;;;;;5030663;28;20259;-69
2021/03/03 03:10:44;;;;;;;2.80;1.73;;;;;;;;;;5045732;28;20206;-69
2021/03/03 03:13:12;;;;;;;0.40;0.40;;;;;;;;;;5030615;28;20170;-68
2021/03/03 03:15:38;;;;;;;0.17;0.17;;;;;;;;;;5045166;28;20228;-68
2021/03/03 03:18:06;;;;;;;0.80;0.80;;;;;;;;;;5030219;28;20190;-69
2021/03/03 03:20:34;;;;;;;0.35;0.35;;;;;;;;;;5030401;28;20162;-68
2021/03/03 03:23:09;;;;;;;1.17;0.93;;;;;;;;;;5029091;28;20273;-69
2021/03/03 03:25:36;;;;;;;0.10;0.10;;;;;;;;;;5028926;28;20269;-69
2021/03/03 03:28:03;;;;;;;0.30;0.30;;;;;;;;;;5030233;28;20358;-68
2021/03/03 03:30:29;;;;;;;4.47;0.80;;;;;;;;;;5030166;28;20170;-68
2021/03/03 03:32:57;;;;;;;1.00;0.52;;;;;;;;;;5027839;28;20208;-70
2021/03/03 03:35:24;;;;;;;0.47;0.38;;;;;;;;;;5030034;28;20207;-68
2021/03/03 03:37:50;;;;;;;2.25;1.48;;;;;;;;;;5030031;28;20190;-69
2021/03/03 03:40:17;;;;;;;0.47;0.47;;;;;;;;;;5030004;28;20182;-68
2021/03/03 03:42:43;;;;;;;5.40;1.20;;;;;;;;;;5028649;28;20185;-68
2021/03/03 03:45:10;;;;;;;0.55;0.55;;;;;;;;;;5029482;28;20241;-68
2021/03/03 03:47:37;;;;;;;0.25;0.25;;;;;;;;;;5029665;28;20182;-70
2021/03/03 03:50:06;;;;;;;0.95;0.95;;;;;;;;;;5028447;28;20177;-69
2021/03/03 03:52:34;;;;;;;0.30;0.30;;;;;;;;;;5029820;28;20185;-68
2021/03/03 03:55:01;;;;;;;0.88;0.88;;;;;;;;;;5029615;28;20208;-69
2021/03/03 03:57:27;;;;;;;0.15;0.15;;;;;;;;;;5029195;28;20247;-70
2021/03/03 03:59:54;;;;;;;2.35;2.25;;;;;;;;;;5029419;28;20173;-71
2021/03/03 04:02:20;;;;;;;2.88;2.65;;;;;;;;;;5029523;28;20154;-70
2021/03/03 04:04:46;;;;;;;0.52;0.52;;;;;;;;;;5028350;28;20198;-70
2021/03/03 04:07:12;;;;;;;0.20;0.20;;;;;;;;;;5028267;28;20200;-69
2021/03/03 04:09:38;;;;;;;0.63;0.63;;;;;;;;;;5029360;28;20162;-71
2021/03/03 04:12:05;;;;;;;1.88;1.80;;;;;;;;;;5029510;28;20159;-70
2021/03/03 04:14:31;;;;;;;1.20;1.13;;;;;;;;;;5029676;28;20197;-69
2021/03/03 04:16:57;;;;;;;0.20;0.20;;;;;;;;;;5029183;28;20661;-70
2021/03/03 04:19:26;;;;;;;0.40;0.40;;;;;;;;;;5028146;28;20189;-69
2021/03/03 04:21:52;;;;;;;0.20;0.20;;;;;;;;;;5028184;28;20214;-69
2021/03/03 04:24:18;;;;;;;1.20;0.85;;;;;;;;;;5028031;28;20198;-70
2021/03/03 04:26:45;;;;;;;0.10;0.10;;;;;;;;;;5029264;28;20168;-70
2021/03/03 04:29:11;;;;;;;0.22;0.22;;;;;;;;;;5028125;28;20200;-71
2021/03/03 04:31:37;;;;;;;0.82;0.82;;;;;;;;;;5027985;28;20548;-70
2021/03/03 04:34:03;;;;;;;0.32;0.32;;;;;;;;;;5029079;28;20212;-69
2021/03/03 04:36:29;;;;;;;0.30;0.30;;;;;;;;;;5029278;28;20193;-69
2021/03/03 04:38:56;;;;;;;1.75;1.15;;;;;;;;;;5029334;28;20641;-70
2021/03/03 04:41:22;;;;;;;4.20;3.80;;;;;;;;;;5029034;28;20158;-70
2021/03/03 04:43:48;;;;;;;1.95;0.93;;;;;;;;;;5029044;28;20197;-70
2021/03/03 04:46:14;;;;;;;1.55;1.50;;;;;;;;;;5027683;28;20220;-68
2021/03/03 04:48:40;;;;;;;0.70;0.70;;;;;;;;;;5027630;28;20178;-69
2021/03/03 04:51:06;;;;;;;4.88;3.55;;;;;;;;;;5029020;28;20174;-69
2021/03/03 04:53:33;;;;;;;0.10;0.10;;;;;;;;;;5028679;28;20158;-68
2021/03/03 04:55:59;;;;;;;0.52;0.52;;;;;;;;;;5028799;28;20163;-69
2021/03/03 04:58:25;;;;;;;0.28;0.28;;;;;;;;;;5027692;28;20618;-68
2021/03/03 05:00:51;;;;;;;1.38;1.35;;;;;;;;;;5027524;28;20203;-69
2021/03/03 05:03:17;;;;;;;1.92;0.98;;;;;;;;;;5028783;28;20162;-69
2021/03/03 05:05:43;;;;;;;0.82;0.82;;;;;;;;;;5028859;28;20198;-71
2021/03/03 05:08:10;;;;;;;0.10;0.10;;;;;;;;;;5028588;28;20591;-70
2021/03/03 05:10:36;;;;;;;0.20;0.20;;;;;;;;;;5027403;28;20185;-70
2021/03/03 05:13:02;;;;;;;2.70;2.50;;;;;;;;;;5030017;28;20658;-70
2021/03/03 05:15:28;;;;;;;0.88;0.82;;;;;;;;;;5031037;28;20675;-70
2021/03/03 05:17:54;;;;;;;0.10;0.10;;;;;;;;;;5032211;28;20729;-69
2021/03/03 05:20:21;;;;;;;1.20;1.20;;;;;;;;;;5031194;28;20185;-69
2021/03/03 05:22:47;;;;;;;0.28;0.28;;;;;;;;;;5030798;28;20543;-69
2021/03/03 05:25:13;;;;;;;0.50;0.50;;;;;;;;;;5032119;28;20197;-70
2021/03/03 05:27:39;;;;;;;2.00;1.90;;;;;;;;;;5030977;28;20233;-69
2021/03/03 05:30:07;;;;;;;0.60;0.60;;;;;;;;;;5032263;28;20225;-69
2021/03/03 05:32:33;;;;;;;0.47;0.47;;;;;;;;;;5032078;28;20221;-69
2021/03/03 05:34:59;;;;;;;0.75;0.75;;;;;;;;;;5032029;28;20253;-70
2021/03/03 05:37:26;;;;;;;1.42;1.38;;;;;;;;;;5031491;28;20304;-69
2021/03/03 05:39:52;;;;;;;1.20;0.77;;;;;;;;;;5031815;28;20633;-70
2021/03/03 05:42:18;;;;;;;0.90;0.90;;;;;;;;;;5030264;28;20174;-70
2021/03/03 05:44:45;;;;;;;0.30;0.30;;;;;;;;;;5031820;28;20190;-70
2021/03/03 05:47:14;;;;;;;0.77;0.77;;;;;;;;;;5031978;28;20217;-70
2021/03/03 05:49:43;;;;;;;0.20;0.20;;;;;;;;;;5030707;28;20170;-70
2021/03/03 05:52:11;;;;;;;0.10;0.10;;;;;;;;;;5029027;28;20710;-69
2021/03/03 05:54:38;;;;;;;0.38;0.38;;;;;;;;;;5030208;28;20235;-68
2021/03/03 05:57:05;;;;;;;0.65;0.65;;;;;;;;;;5031537;28;20713;-68
2021/03/03 05:59:31;;;;;;;0.30;0.30;;;;;;;;;;5029959;28;20174;-69
2021/03/03 06:01:58;;;;;;;1.77;1.67;;;;;;;;;;5030248;28;20174;-71
2021/03/03 06:04:24;;;;;;;2.08;1.98;;;;;;;;;;5030027;28;20197;-70
2021/03/03 06:06:51;;;;;;;0.25;0.25;;;;;;;;;;5031416;28;20212;-69
2021/03/03 06:09:18;;;;;;;1.50;1.42;;;;;;;;;;5031281;28;20215;-70
2021/03/03 06:11:45;;;;;;;3.60;1.88;;;;;;;;;;5031259;28;20150;-69
2021/03/03 06:14:12;;;;;;;0.80;0.80;;;;;;;;;;5031097;28;20198;-69
2021/03/03 06:16:38;;;;;;;0.17;0.17;;;;;;;;;;5030863;28;20194;-69
2021/03/03 06:19:05;;;;;;;2.67;1.35;;;;;;;;;;5030656;28;20154;-70
2021/03/03 06:21:32;;;;;;;0.82;0.82;;;;;;;;;;5030401;28;20220;-70
2021/03/03 06:24:03;;;;;;;6.22;1.27;;;;;;;;;;5029498;28;20269;-70
2021/03/03 06:26:30;;;;;;;0.43;0.43;;;;;;;;;;5028214;28;20170;-70
2021/03/03 06:28:57;;;;;;;0.20;0.20;;;;;;;;;;5030909;28;20221;-69
2021/03/03 06:31:23;;;;;;;0.10;0.10;;;;;;;;;;5030421;28;20265;-70
2021/03/03 06:33:50;;;;;;;0.20;0.20;;;;;;;;;;5030465;28;20276;-70
2021/03/03 06:36:29;;;;;;;0.17;0.17;;;;;;;;;;5030556;28;20224;-70
2021/03/03 06:38:56;;;;;;;0.20;0.20;;;;;;;;;;5029393;28;20173;-70
2021/03/03 06:41:22;;;;;;;0.73;0.73;;;;;;;;;;5029252;28;20174;-69
2021/03/03 06:43:56;;;;;;;1.02;1.02;;;;;;;;;;5030452;28;20259;-71
2021/03/03 06:46:22;;;;;;;0.40;0.40;;;;;;;;;;5030495;28;20242;-70
2021/03/03 06:48:49;;;;;;;0.30;0.30;;;;;;;;;;5030825;28;20249;-70
2021/03/03 06:51:18;;;;;;;0.45;0.45;;;;;;;;;;5030643;28;20158;-69
2021/03/03 06:53:45;;;;;;;0.10;0.10;;;;;;;;;;5029156;28;20174;-69
2021/03/03 06:56:11;;;;;;;0.10;0.10;;;;;;;;;;5029522;28;20575;-70
2021/03/03 06:58:37;;;;;;;0.10;0.10;;;;;;;;;;5030492;28;20159;-69
2021/03/03 07:01:04;;;;;;;0.65;0.65;;;;;;;;;;5030446;28;20155;-69
2021/03/03 07:03:34;;;;;;;0.63;0.63;;;;;;;;;;5030110;28;20212;-69
2021/03/03 07:06:01;;;;;;;0.30;0.30;;;;;;;;;;5030185;28;20158;-69
2021/03/03 07:08:27;;;;;;;0.90;0.90;;;;;;;;;;5030231;28;20162;-70
2021/03/03 07:10:53;;;;;;;0.63;0.63;;;;;;;;;;5030134;28;20177;-69
2021/03/03 07:13:35;;;;;;;2.63;1.85;;;;;;;;;;5030272;28;20165;-69
2021/03/03 07:16:05;;;;;;;0.68;0.68;;;;;;;;;;5029957;28;20166;-69
2021/03/03 07:18:32;;;;;;;0.22;0.22;;;;;;;;;;5030288;28;20162;-69
2021/03/03 07:20:59;;;;;;;3.10;1.55;;;;;;;;;;5030261;28;20174;-69
2021/03/03 07:23:41;;;;;;;0.10;0.10;;;;;;;;;;5029732;28;20158;-68
2021/03/03 07:26:08;;;;;;;2.92;1.77;;;;;;;;;;5029806;28;20257;-69
2021/03/03 07:28:35;;;;;;;0.00;0.00;;;;;;;;;;5029839;28;20162;-69
2021/03/03 07:31:02;;;;;;;0.75;0.30;;;;;;;;;;5028712;28;20190;-69
2021/03/03 07:33:28;;;;;;;0.45;0.45;;;;;;;;;;5029656;28;20162;-69
2021/03/03 07:35:54;;;;;;;2.55;1.38;;;;;;;;;;5029446;28;20165;-69
2021/03/03 07:38:21;;;;;;;1.85;1.38;;;;;;;;;;5028175;28;20334;-70
2021/03/03 07:40:47;;;;;;;3.83;1.92;;;;;;;;;;5029777;28;20167;-69
2021/03/03 07:43:17;;;;;;;0.20;0.20;;;;;;;;;;5029497;28;20538;-69
2021/03/03 07:45:43;;;;;;;0.65;0.65;;;;;;;;;;5029310;28;20256;-69
2021/03/03 07:48:11;;;;;;;0.40;0.38;;;;;;;;;;5028276;28;20177;-69
2021/03/03 07:50:37;;;;;;;0.20;0.20;;;;;;;;;;5028396;28;20272;-70
2021/03/03 07:53:03;;;;;;;0.38;0.38;;;;;;;;;;5033511;28;20181;-70
2021/03/03 07:55:30;;;;;;;0.38;0.35;;;;;;;;;;5048686;28;20201;-70
2021/03/03 07:57:57;;;;;;;1.52;1.42;;;;;;;;;;5047621;28;20200;-70
2021/03/03 08:00:24;;;;;;;1.27;1.27;;;;;;;;;;5049132;28;20176;-71
2021/03/03 08:02:53;;;;;;;0.75;0.50;;;;;;;;;;5049026;28;20159;-71
2021/03/03 08:05:29;;;;;;;3.33;1.75;;;;;;;;;;5049224;28;20192;-71
2021/03/03 08:08:16;;;;;;;2.00;1.90;;;;;;;;;;5047817;28;20173;-71
2021/03/03 08:10:42;;;;;;;0.63;0.63;;;;;;;;;;5048720;28;20158;-69
2021/03/03 08:13:09;;;;;;;2.50;2.30;;;;;;;;;;5043732;28;20641;-71
2021/03/03 08:15:43;;;;;;;1.35;0.98;;;;;;;;;;5048201;28;20215;-69
2021/03/03 08:18:15;;;;;;;0.63;0.63;;;;;;;;;;5043867;28;20347;-69
2021/03/03 08:20:43;;;;;;;0.22;0.22;;;;;;;;;;5035805;28;20170;-69
2021/03/03 08:23:09;;;;;;;0.52;0.52;;;;;;;;;;5041352;28;20185;-68
2021/03/03 08:25:42;;;;;;;0.63;0.63;;;;;;;;;;5047458;28;20205;-69
2021/03/03 08:28:23;;;;;;;1.88;1.77;;;;;;;;;;5048773;28;20661;-69
2021/03/03 08:31:11;;;;;;;1.35;1.33;;;;;;;;;;5047629;28;20192;-69
2021/03/03 08:33:40;;;;;;;3.15;1.13;;;;;;;;;;5048545;28;20161;-70
2021/03/03 08:36:08;;;;;;;0.52;0.52;;;;;;;;;;5047214;28;20227;-69
2021/03/03 08:38:35;;;;;;;1.30;1.20;;;;;;;;;;5048723;28;20217;-69
2021/03/03 08:41:16;;;;;;;1.33;1.25;;;;;;;;;;5047409;28;20181;-70
2021/03/03 08:43:43;;;;;;;0.93;0.93;;;;;;;;;;5047194;28;20165;-69
2021/03/03 08:46:38;;;;;;;3.30;0.70;;;;;;;;;;5047019;28;20220;-69
2021/03/03 08:49:05;;;;;;;0.80;0.50;;;;;;;;;;5047880;28;20579;-69
2021/03/03 08:51:34;;;;;;;1.95;0.98;;;;;;;;;;5050057;28;20211;-69
2021/03/03 08:54:01;;;;;;;1.55;1.45;;;;;;;;;;5052643;28;20212;-70
2021/03/03 08:56:35;;;;;;;1.50;1.23;;;;;;;;;;5050924;28;20291;-70
2021/03/03 08:59:11;;;;;;;1.45;1.25;;;;;;;;;;5051195;28;20226;-78
2021/03/03 09:01:55;;;;;;;1.10;0.45;;;;;;;;;;5052208;28;20160;-76
2021/03/03 09:04:22;;;;;;;1.42;0.63;;;;;;;;;;5052045;28;20196;-77
2021/03/03 09:06:48;;;;;;;1.45;1.27;;;;;;;;;;5051162;28;20634;-77
2021/03/03 09:09:14;;;;;;;6.25;2.33;;;;;;;;;;5050973;28;20618;-76
2021/03/03 09:11:40;;;;;;;1.73;1.13;;;;;;;;;;5052349;28;20158;-76
2021/03/03 09:14:07;;;;;;;2.78;1.75;;;;;;;;;;5049798;28;20193;-77
2021/03/03 09:16:33;;;;;;;1.90;1.67;;;;;;;;;;5050966;28;20193;-71
2021/03/03 09:19:07;;;;;;;1.42;1.33;;;;;;;;;;5047333;28;20193;-70
2021/03/03 09:21:33;;;;;;;4.85;1.88;;;;;;;;;;5032090;28;20162;-70
2021/03/03 09:24:09;;;;;;;2.38;1.55;;;;;;;;;;5030916;28;20197;-69
2021/03/03 09:26:36;;;;;;;2.13;1.63;;;;;;;;;;5039691;28;20171;-70
2021/03/03 09:29:03;;;;;;;4.25;1.08;;;;;;;;;;5049674;28;20165;-68
2021/03/03 09:31:33;;;;;;;0.70;0.70;;;;;;;;;;5051648;28;20161;-69
2021/03/03 09:33:59;;;;;;;8.02;1.10;;;;;;;;;;5050344;28;20192;-69
2021/03/03 09:36:26;;;;;;;0.98;0.98;;;;;;;;;;5050809;28;20161;-70
2021/03/03 09:38:53;;;;;;;2.17;1.67;;;;;;;;;;5051512;28;20187;-69
2021/03/03 09:41:20;;;;;;;3.10;1.67;;;;;;;;;;5051575;28;20161;-69
2021/03/03 09:43:59;;;;;;;1.83;1.13;;;;;;;;;;5051609;28;20149;-68
2021/03/03 09:46:25;;;;;;;0.82;0.77;;;;;;;;;;5050254;28;20224;-69
2021/03/03 09:48:51;;;;;;;0.90;0.90;;;;;;;;;;5051213;28;20160;-69
2021/03/03 09:51:17;;;;;;;0.98;0.98;;;;;;;;;;5049487;28;20165;-69
2021/03/03 09:53:53;;;;;;;3.17;1.17;;;;;;;;;;5049380;28;20211;-69
2021/03/03 09:56:26;;;;;;;1.08;1.08;;;;;;;;;;5050182;28;20187;-69
2021/03/03 09:58:53;;;;;;;1.15;1.15;;;;;;;;;;5050158;28;20157;-69
2021/03/03 10:01:19;;;;;;;7.10;1.77;;;;;;;;;;5049923;28;20184;-69
2021/03/03 10:03:45;;;;;;;3.22;2.10;;;;;;;;;;5050510;28;20196;-69
2021/03/03 10:06:12;;;;;;;1.08;1.08;;;;;;;;;;5049433;28;20157;-69
2021/03/03 10:08:38;;;;;;;2.25;1.70;;;;;;;;;;5048307;28;20522;-70
2021/03/03 10:11:04;;;;;;;3.88;1.92;;;;;;;;;;5049230;28;20160;-70
2021/03/03 10:13:30;;;;;;;8.57;2.47;;;;;;;;;;5050564;28;20157;-69
2021/03/03 10:15:57;;;;;;;4.13;0.80;;;;;;;;;;5049134;28;20161;-69
2021/03/03 10:18:23;;;;;;;1.13;1.08;;;;;;;;;;5049514;28;20209;-69
2021/03/03 10:20:53;;;;;;;0.63;0.63;;;;;;;;;;5049271;28;20207;-69
2021/03/03 10:23:21;;;;;;;1.65;1.55;;;;;;;;;;5048772;28;20176;-69
2021/03/03 10:25:48;;;;;;;2.35;1.63;;;;;;;;;;5050324;28;20247;-69
2021/03/03 10:28:15;;;;;;;0.80;0.80;;;;;;;;;;5050297;28;20168;-69
2021/03/03 10:30:45;;;;;;;3.30;1.33;;;;;;;;;;5049496;28;20165;-69
2021/03/03 10:33:12;;;;;;;1.25;1.05;;;;;;;;;;5049901;28;20240;-69
2021/03/03 10:35:49;;;;;;;0.52;0.52;;;;;;;;;;5050306;28;20157;-72
2021/03/03 10:38:16;;;;;;;1.60;1.50;;;;;;;;;;5050065;28;20262;-70
2021/03/03 10:40:44;;;;;;;14.80;2.75;;;;;;;;;;5049433;28;20183;-71
2021/03/03 10:43:11;;;;;;;1.27;1.17;;;;;;;;;;5049799;28;20165;-72
2021/03/03 10:45:38;;;;;;;0.68;0.68;;;;;;;;;;5049876;28;20220;-70
2021/03/03 10:48:05;;;;;;;0.85;0.85;;;;;;;;;;5050149;28;20235;-69
2021/03/03 10:50:31;;;;;;;0.95;0.93;;;;;;;;;;5047581;28;20353;-69
2021/03/03 10:52:59;;;;;;;3.33;2.35;;;;;;;;;;5049627;28;20211;-72
2021/03/03 10:55:26;;;;;;;0.60;0.60;;;;;;;;;;5048630;28;20227;-71
2021/03/03 10:58:19;;;;;;;1.30;1.20;;;;;;;;;;5048251;28;20196;-71
2021/03/03 11:01:02;;;;;;;1.20;1.17;;;;;;;;;;5045334;28;20189;-69
2021/03/03 11:03:29;;;;;;;2.15;0.88;;;;;;;;;;5048157;28;20192;-71
2021/03/03 11:05:58;;;;;;;0.57;0.57;;;;;;;;;;5049852;28;20156;-72
2021/03/03 11:08:25;;;;;;;1.55;1.10;;;;;;;;;;5049127;28;20188;-71
2021/03/03 11:10:52;;;;;;;1.60;1.50;;;;;;;;;;5047383;28;20244;-71
2021/03/03 11:13:18;;;;;;;1.35;1.02;;;;;;;;;;5048276;28;20220;-71
2021/03/03 11:15:45;;;;;;;2.45;0.88;;;;;;;;;;5049300;28;20234;-70
2021/03/03 11:18:12;;;;;;;1.00;0.95;;;;;;;;;;5044534;28;20235;-72
2021/03/03 11:20:39;;;;;;;0.57;0.57;;;;;;;;;;5029637;28;20185;-71
2021/03/03 11:23:06;;;;;;;3.13;1.10;;;;;;;;;;5028420;28;20192;-71
2021/03/03 11:25:32;;;;;;;6.97;2.20;;;;;;;;;;5029408;28;20185;-74
2021/03/03 11:27:58;;;;;;;0.28;0.28;;;;;;;;;;5064408;28;20177;-78
2021/03/03 11:30:24;;;;;;;3.05;2.08;;;;;;;;;;5049338;28;20161;-75
2021/03/03 11:32:52;;;;;;;3.53;1.15;;;;;;;;;;5048702;28;20153;-78
2021/03/03 11:35:18;;;;;;;1.00;0.63;;;;;;;;;;5047974;28;20215;-78
2021/03/03 11:37:45;;;;;;;1.63;1.52;;;;;;;;;;5049079;28;20199;-77
2021/03/03 11:40:11;;;;;;;0.75;0.55;;;;;;;;;;5049046;28;20220;-77
2021/03/03 11:42:37;;;;;;;0.98;0.93;;;;;;;;;;5049023;28;20213;-77
2021/03/03 11:45:05;;;;;;;0.88;0.70;;;;;;;;;;5046418;28;20200;-77
2021/03/03 11:47:31;;;;;;;1.50;0.75;;;;;;;;;;5047773;28;20530;-77
2021/03/03 11:49:58;;;;;;;2.67;1.65;;;;;;;;;;5047321;28;20219;-78
2021/03/03 11:52:24;;;;;;;1.10;1.08;;;;;;;;;;5049029;28;20169;-75
2021/03/03 11:54:50;;;;;;;1.27;0.70;;;;;;;;;;5047163;28;20211;-76
2021/03/03 11:57:16;;;;;;;1.77;1.50;;;;;;;;;;5048694;28;20200;-76
2021/03/03 11:59:42;;;;;;;0.57;0.57;;;;;;;;;;5048955;28;20492;-75
2021/03/03 12:02:08;;;;;;;1.00;0.82;;;;;;;;;;5048236;28;20161;-79
2021/03/03 12:04:35;;;;;;;1.65;0.95;;;;;;;;;;5047747;28;20201;-77
2021/03/03 12:07:01;;;;;;;1.80;1.13;;;;;;;;;;5048638;28;20642;-79
2021/03/03 12:09:27;;;;;;;0.98;0.95;;;;;;;;;;5047353;28;20179;-79
2021/03/03 12:11:53;;;;;;;1.65;1.05;;;;;;;;;;5047162;28;20176;-77
2021/03/03 12:14:19;;;;;;;1.05;0.77;;;;;;;;;;5048229;28;20197;-78
2021/03/03 12:16:45;;;;;;;0.57;0.57;;;;;;;;;;5046719;28;20197;-77
2021/03/03 12:19:12;;;;;;;0.93;0.75;;;;;;;;;;5048179;28;20232;-78
2021/03/03 12:21:39;;;;;;;0.90;0.77;;;;;;;;;;5048242;28;20165;-77
2021/03/03 12:24:05;;;;;;;1.52;0.95;;;;;;;;;;5047135;28;20164;-78
2021/03/03 12:26:31;;;;;;;1.88;1.23;;;;;;;;;;5048378;28;20194;-76
2021/03/03 12:28:57;;;;;;;0.68;0.68;;;;;;;;;;5047263;28;20180;-75
2021/03/03 12:31:24;;;;;;;1.65;1.55;;;;;;;;;;5047096;28;20614;-76
2021/03/03 12:33:50;;;;;;;0.20;0.20;;;;;;;;;;5048503;28;20159;-76
2021/03/03 12:36:16;;;;;;;0.43;0.43;;;;;;;;;;5048416;28;20168;-76
2021/03/03 12:38:42;;;;;;;2.47;1.30;;;;;;;;;;5047910;28;20599;-75
2021/03/03 12:41:08;;;;;;;1.25;1.10;;;;;;;;;;5048314;28;20183;-75
2021/03/03 12:43:34;;;;;;;0.85;0.85;;;;;;;;;;5048454;28;20631;-76
2021/03/03 12:46:01;;;;;;;0.40;0.40;;;;;;;;;;5047700;28;20232;-76
2021/03/03 12:48:27;;;;;;;0.88;0.65;;;;;;;;;;5047912;28;20164;-77
2021/03/03 12:50:53;;;;;;;1.83;0.85;;;;;;;;;;5042939;28;20211;-72
2021/03/03 12:53:19;;;;;;;0.30;0.30;;;;;;;;;;5043980;28;20203;-72
2021/03/03 12:55:46;;;;;;;0.60;0.60;;;;;;;;;;5047596;28;20197;-77
2021/03/03 12:58:12;;;;;;;0.75;0.70;;;;;;;;;;5047196;28;20275;-79
2021/03/03 13:00:38;;;;;;;10.02;1.38;;;;;;;;;;5048374;28;20195;-79
2021/03/03 13:03:04;;;;;;;1.35;0.90;;;;;;;;;;5043331;28;20200;-79
2021/03/03 13:05:31;;;;;;;0.75;0.75;;;;;;;;;;5044227;28;20198;-79
2021/03/03 13:07:57;;;;;;;0.45;0.40;;;;;;;;;;5043849;28;20189;-79
2021/03/03 13:10:23;;;;;;;1.67;1.25;;;;;;;;;;5028383;28;20177;-78
2021/03/03 13:12:49;;;;;;;2.28;1.77;;;;;;;;;;5045535;28;20240;-80
2021/03/03 13:15:16;;;;;;;1.35;0.63;;;;;;;;;;5045606;28;20197;-79
2021/03/03 13:17:42;;;;;;;0.80;0.80;;;;;;;;;;5047270;28;20204;-78
2021/03/03 13:20:09;;;;;;;0.20;0.20;;;;;;;;;;5047561;28;20176;-78
2021/03/03 13:22:36;;;;;;;12.63;0.57;;;;;;;;;;5046219;28;20196;-78
2021/03/03 13:25:03;;;;;;;0.43;0.43;;;;;;;;;;5046768;28;20232;-77
2021/03/03 13:27:29;;;;;;;0.70;0.70;;;;;;;;;;5047863;28;20177;-78
2021/03/03 13:29:56;;;;;;;1.30;0.52;;;;;;;;;;5046379;28;20627;-78
2021/03/03 13:32:22;;;;;;;0.70;0.70;;;;;;;;;;5047831;28;20189;-79
2021/03/03 13:34:48;;;;;;;1.27;1.17;;;;;;;;;;5049398;28;20558;-80
2021/03/03 13:37:14;;;;;;;11.77;0.63;;;;;;;;;;5049116;28;20208;-79
2021/03/03 13:39:41;;;;;;;1.33;1.33;;;;;;;;;;5050260;28;20170;-80
2021/03/03 13:42:07;;;;;;;0.63;0.57;;;;;;;;;;5051011;28;20217;-77
2021/03/03 13:44:34;;;;;;;0.68;0.68;;;;;;;;;;5049348;28;20208;-78
2021/03/03 13:47:01;;;;;;;0.68;0.52;;;;;;;;;;5049932;28;20237;-79
2021/03/03 13:49:27;;;;;;;2.00;0.85;;;;;;;;;;5050717;28;20174;-79
2021/03/03 13:51:54;;;;;;;1.30;1.17;;;;;;;;;;5049908;28;20617;-78
2021/03/03 13:54:21;;;;;;;0.60;0.60;;;;;;;;;;5050707;28;20208;-78
2021/03/03 13:56:47;;;;;;;0.52;0.52;;;;;;;;;;5050424;28;20284;-79
2021/03/03 13:59:13;;;;;;;1.05;0.95;;;;;;;;;;5048947;28;20181;-79
2021/03/03 14:01:39;;;;;;;0.43;0.43;;;;;;;;;;5050416;28;20181;-76
2021/03/03 14:04:06;;;;;;;0.45;0.45;;;;;;;;;;5045830;28;20198;-79
2021/03/03 14:06:32;;;;;;;0.68;0.68;;;;;;;;;;5046273;28;20174;-78
2021/03/03 14:08:59;;;;;;;0.63;0.63;;;;;;;;;;5045031;28;20181;-80
2021/03/03 14:11:25;;;;;;;0.80;0.80;;;;;;;;;;5030886;28;20167;-80
2021/03/03 14:13:51;;;;;;;0.80;0.77;;;;;;;;;;5031947;28;20208;-79
2021/03/03 14:16:18;;;;;;;1.30;1.20;;;;;;;;;;5039134;28;20161;-79
2021/03/03 14:18:44;;;;;;;2.13;1.38;;;;;;;;;;5047783;28;20212;-79
2021/03/03 14:21:11;;;;;;;1.85;1.27;;;;;;;;;;5050434;28;20158;-79
2021/03/03 14:23:37;;;;;;;1.83;1.73;;;;;;;;;;5050191;28;20260;-78
2021/03/03 14:26:03;;;;;;;0.57;0.57;;;;;;;;;;5048889;28;20184;-78
2021/03/03 14:28:29;;;;;;;0.10;0.10;;;;;;;;;;5048955;28;20177;-79
2021/03/03 14:30:56;;;;;;;0.30;0.30;;;;;;;;;;5049170;28;20169;-78
2021/03/03 14:33:22;;;;;;;0.30;0.30;;;;;;;;;;5050000;28;20173;-78
2021/03/03 14:35:48;;;;;;;0.10;0.10;;;;;;;;;;5049987;28;20232;-78
2021/03/03 14:38:17;;;;;;;0.10;0.10;;;;;;;;;;5049585;28;20193;-80
2021/03/03 14:40:43;;;;;;;3.17;0.50;;;;;;;;;;5049015;28;20157;-78
2021/03/03 14:43:10;;;;;;;0.55;0.55;;;;;;;;;;5048634;28;20199;-76
2021/03/03 14:45:36;;;;;;;0.75;0.75;;;;;;;;;;5048685;28;20240;-78